Terminal Aerodrome Forecast
Issued by NWS Charleston, WV

Current Version | Previous Version | Graphics & Text | Print | Product List | Glossary On
Versions: 1 2 3 4 5 6 7 8 9 10 11 12 13 14 15 16 17 18 19 20 21 22 23 24 25
000
FTUS41 KRLX 222323
TAFEKN
TAF
KEKN 222323Z 2300/2324 30004KT P6SM SCT200
     FM230200 00000KT P6SM SCT200
     FM230400 00000KT 3SM BR SCT200
     FM230700 00000KT 1SM BR SCT001
     FM231300 11005KT 5SM BR FEW001 BKN050
     FM231400 11006KT P6SM BKN045
     FM231700 11006KT P6SM BKN030=

USA.gov is the U.S. government's official web portal to all federal, state and local government web resources and services.